Aérodrome :
LOGIN :

S'inscrire | Disclaimer

   EN    FR    IT 

 










Légende :    VFR   VFR Marginal   IFR   IFR Intensif   IFR Très Intensif
Visi : 
Plafond : 
>= 8 km
>= 3000ft
5 à 8 km
1000 à 3000 ft
1500m à 5 km
500 à 1000 ft
800 à 1500m
200 à 500 ft
< 800m
< 200 ft
Symboles :   Orages  Brouillard  Fortes neiges  Fortes précipitations  Vent > 20 kt
SIGMETs :   Divers  Orages  Givrage  Turbulence  Onde Orograph.  Cendres Volcan.






- Altitude de l'aérodrome : 915 ft
- Code IATA : LUG


LSZA - Lugano

DERNIER METAR :
  • 131920Z AUTO VRB01KT 9999 FEW095 23/20 Q1015 RERA

METARs EXPIRÉS :
  • 131850Z AUTO VRB02KT 1700 -RA BR BKN/// 23/19 Q1015
  • 131820Z AUTO VRB02KT CAVOK 24/19 Q1015
  • 131750Z AUTO VRB02KT CAVOK 25/19 Q1014
  • 131720Z AUTO VRB02KT CAVOK 26/19 Q1014
  • 131650Z AUTO VRB02KT 9999 NSC 26/19 Q1014
  • 131620Z VRB02KT CAVOK 28/18 Q1015 NOSIG

TAF TAF LSZA
Valide du 13 à 15h jusqu'au 14 à 00h UTC


131425Z 1315/1324 VRB03KT 9999 SCT050TCU
PROB40
TEMPO 1315/1324 19012G25KT 4000 TSRA SCT070CB
ATIS : +41 22 417 40 88



MET'MAP, la Météo Aéronautique d'un coup d'oeil ! - Copyright ORBIFLY Décembre 2007 - Disclaimer

ORBIFLY MET'MAP TEAM :

Programmation & Développement : Alexandra Zaïnal
Sur une idée originale de : Baudouin d'Aumeries
Assistance à la programmation : Marc-Olivier Méhu
Soutien technique & logistique : Manuel Goepfert

Contact : metmap@orbifly.com




SOURCES & CREDITS :

   NOAA